Time;durP1;ratioP1;P1;durP2;ratioP2;P2;SDS_P1;SDS_P2;PMS_P1;PMS_P2;Temp;Humidity;BMP_temperature;BMP_pressure;BME280_temperature;BME280_humidity;BME280_pressure;Samples;Min_cycle;Max_cycle;Signal;HPM_P1;HPM_P2
2023/11/03 00:01:30;;;;;;;3.50;1.30;;;7.80;81.70;;;9.30;59.80;94818.69;5072738;28;20052;-43
2023/11/03 00:03:58;;;;;;;4.37;1.87;;;7.80;80.70;;;9.35;59.58;94822.28;5072960;28;20055;-45
2023/11/03 00:06:26;;;;;;;4.43;1.43;;;7.80;81.30;;;9.38;59.57;94808.59;5054282;28;20052;-46
2023/11/03 00:08:53;;;;;;;3.63;1.00;;;7.90;80.70;;;9.50;59.43;94821.91;5072916;28;20044;-45
2023/11/03 00:11:21;;;;;;;4.40;1.73;;;8.00;79.80;;;9.58;58.95;94816.31;5072555;28;20033;-44
2023/11/03 00:13:49;;;;;;;2.80;1.10;;;8.00;79.50;;;9.58;58.87;94824.25;5072758;28;20041;-48
2023/11/03 00:16:16;;;;;;;4.33;2.27;;;8.00;79.90;;;9.62;58.84;94814.81;5072360;28;20048;-44
2023/11/03 00:18:44;;;;;;;2.60;0.90;;;8.00;79.30;;;9.55;58.55;94818.59;5072677;28;20048;-46
2023/11/03 00:21:12;;;;;;;3.77;1.13;;;7.90;80.10;;;9.56;58.67;94817.56;5072207;28;20496;-45
2023/11/03 00:23:39;;;;;;;1.77;0.80;;;7.90;80.50;;;9.60;58.66;94808.13;5054808;28;20048;-45
2023/11/03 00:26:10;;;;;;;2.67;1.23;;;7.90;80.40;;;9.66;58.39;94818.63;5053830;28;20071;-46
2023/11/03 00:28:41;;;;;;;2.37;1.03;;;7.90;80.50;;;9.64;58.26;94827.88;5072508;28;20044;-47
2023/11/03 00:31:08;;;;;;;3.60;1.97;;;7.80;80.20;;;9.63;58.29;94824.41;5037169;28;20063;-46
2023/11/03 00:33:36;;;;;;;2.03;1.20;;;7.80;80.50;;;9.58;58.50;94826.91;5053970;28;20059;-44
2023/11/03 00:36:05;;;;;;;1.80;1.43;;;7.70;81.30;;;9.59;58.41;94833.03;5053877;28;20049;-46
2023/11/03 00:38:33;;;;;;;1.00;0.70;;;7.70;81.90;;;9.58;58.14;94826.91;5053695;28;20056;-43
2023/11/03 00:41:00;;;;;;;4.27;1.57;;;7.70;81.90;;;9.55;58.52;94837.19;5054053;28;20056;-45
2023/11/03 00:43:28;;;;;;;3.63;1.23;;;7.60;82.00;;;9.52;58.53;94819.84;5054059;28;20052;-44
2023/11/03 00:45:56;;;;;;;3.30;1.20;;;7.60;82.20;;;9.46;58.39;94820.75;5053529;28;20048;-44
2023/11/03 00:48:26;;;;;;;2.47;1.20;;;7.50;82.60;;;9.38;58.43;94816.56;5053706;28;20045;-47
2023/11/03 00:50:54;;;;;;;2.20;0.97;;;7.40;83.00;;;9.33;58.50;94826.22;5053614;28;20530;-44
2023/11/03 00:53:21;;;;;;;3.93;1.40;;;7.30;83.40;;;9.25;58.83;94825.47;5071908;28;20435;-47
2023/11/03 00:55:49;;;;;;;3.83;1.20;;;7.20;83.50;;;9.17;59.00;94825.78;5053246;28;20055;-46
2023/11/03 00:58:17;;;;;;;1.40;0.93;;;7.20;84.50;;;9.12;58.88;94814.19;5072016;28;20535;-44
2023/11/03 01:00:44;;;;;;;2.33;1.20;;;7.20;84.70;;;9.07;59.30;94815.66;5052898;28;20347;-47
2023/11/03 01:03:14;;;;;;;2.07;1.50;;;7.10;84.70;;;9.05;59.23;94808.94;5053950;28;20052;-45
2023/11/03 01:05:41;;;;;;;4.83;1.73;;;7.10;85.50;;;9.04;59.40;94802.84;5053327;28;20139;-44
2023/11/03 01:08:09;;;;;;;2.93;0.90;;;7.10;84.50;;;9.02;59.46;94809.41;5053626;28;20044;-44
2023/11/03 01:10:36;;;;;;;2.83;1.10;;;7.10;85.10;;;9.00;59.57;94812.28;5052958;28;20053;-44
2023/11/03 01:13:09;;;;;;;2.37;1.00;;;7.10;84.60;;;8.93;59.50;94810.72;5053706;28;20059;-44
2023/11/03 01:15:43;;;;;;;4.00;1.27;;;7.10;85.20;;;8.90;59.96;94809.31;5053410;28;20056;-50
2023/11/03 01:18:11;;;;;;;1.03;0.80;;;7.00;85.50;;;8.84;59.74;94803.06;5071797;28;20052;-46
2023/11/03 01:20:40;;;;;;;2.93;1.47;;;7.00;85.20;;;8.92;59.80;94811.72;5053138;28;20045;-44
2023/11/03 01:23:07;;;;;;;3.77;1.10;;;7.10;85.60;;;8.90;59.72;94819.09;5053617;28;20492;-47
2023/11/03 01:25:35;;;;;;;2.80;1.20;;;7.10;85.10;;;8.90;59.86;94816.44;5053541;28;20072;-46
2023/11/03 01:28:05;;;;;;;3.10;1.20;;;7.20;84.70;;;8.95;59.86;94821.91;5052764;28;20049;-45
2023/11/03 01:30:33;;;;;;;0.90;0.80;;;7.20;84.00;;;8.97;59.93;94831.28;5053766;28;20522;-46
2023/11/03 01:33:03;;;;;;;5.20;1.37;;;7.30;83.80;;;9.00;59.70;94828.19;5071483;28;20416;-48
2023/11/03 01:35:31;;;;;;;3.00;1.10;;;7.40;83.40;;;9.03;59.74;94837.53;5070965;28;20044;-46
2023/11/03 01:37:59;;;;;;;3.37;1.37;;;7.40;82.90;;;9.01;59.86;94837.75;5044768;28;20044;-47
2023/11/03 01:40:26;;;;;;;2.67;1.10;;;7.40;82.30;;;9.01;59.85;94837.75;5052202;28;20064;-48
2023/11/03 01:42:54;;;;;;;3.57;1.33;;;7.40;82.60;;;8.97;59.66;94851.69;5070162;28;20044;-50
2023/11/03 01:45:22;;;;;;;5.30;1.20;;;7.40;82.80;;;9.02;59.59;94854.50;5052711;28;20048;-48
2023/11/03 01:47:50;;;;;;;4.23;1.57;;;7.40;82.30;;;8.96;59.68;94847.44;5060711;28;20131;-44
2023/11/03 01:50:17;;;;;;;1.80;1.00;;;7.30;82.50;;;9.02;59.50;94855.31;5070772;28;20555;-46
2023/11/03 01:52:46;;;;;;;2.10;1.13;;;7.30;82.80;;;9.03;59.62;94854.31;5052946;28;20044;-48
2023/11/03 01:55:15;;;;;;;2.93;1.00;;;7.30;83.10;;;9.06;59.29;94866.31;5052257;28;20048;-48
2023/11/03 01:57:43;;;;;;;3.37;1.00;;;7.30;82.70;;;8.96;59.54;94864.16;5052230;28;20056;-47
2023/11/03 02:00:13;;;;;;;2.53;1.10;;;7.20;83.50;;;8.93;59.61;94863.78;5053178;28;20057;-45
2023/11/03 02:02:42;;;;;;;3.87;1.27;;;7.20;83.80;;;8.93;59.43;94866.44;5070902;28;20048;-45
2023/11/03 02:05:10;;;;;;;3.10;1.80;;;7.10;84.10;;;8.90;59.72;94859.72;5071022;28;20052;-47
2023/11/03 02:07:38;;;;;;;4.90;1.40;;;7.00;84.50;;;8.92;59.49;94857.66;5070852;28;20033;-45
2023/11/03 02:10:07;;;;;;;4.80;1.60;;;7.10;84.30;;;8.95;59.57;94849.25;5052927;28;20071;-46
2023/11/03 02:12:35;;;;;;;4.83;1.30;;;7.10;84.30;;;8.91;59.52;94848.06;5070661;28;20047;-46
2023/11/03 02:15:06;;;;;;;2.50;1.13;;;7.00;83.90;;;8.90;59.30;94843.81;5052498;28;20041;-46
2023/11/03 02:17:36;;;;;;;2.07;1.20;;;7.00;84.30;;;8.83;59.66;94843.84;5069987;28;20059;-47
2023/11/03 02:20:07;;;;;;;5.00;1.77;;;7.00;84.70;;;8.82;59.43;94850.22;5052495;28;20166;-48
2023/11/03 02:22:35;;;;;;;3.07;1.07;;;7.00;84.30;;;8.76;59.58;94843.13;5052396;28;20053;-44
2023/11/03 02:25:03;;;;;;;4.57;1.10;;;6.90;84.60;;;8.76;59.58;94842.28;5070880;28;20045;-48
2023/11/03 02:27:31;;;;;;;2.97;1.23;;;7.00;84.70;;;8.81;59.21;94834.50;5052339;28;20048;-46
2023/11/03 02:29:59;;;;;;;3.57;0.83;;;7.00;84.30;;;8.77;59.52;94838.63;5062812;28;20055;-44
2023/11/03 02:32:26;;;;;;;5.23;1.20;;;7.00;84.00;;;8.78;59.71;94834.94;5070669;28;20040;-48
2023/11/03 02:34:54;;;;;;;4.23;1.43;;;7.00;83.90;;;8.78;59.57;94841.06;5052698;28;20040;-49
2023/11/03 02:37:21;;;;;;;3.13;1.03;;;7.00;84.10;;;8.76;59.62;94851.09;5070747;28;20040;-48
2023/11/03 02:39:49;;;;;;;3.60;1.30;;;7.00;83.80;;;8.78;59.57;94843.72;5052086;28;20040;-46
2023/11/03 02:42:17;;;;;;;2.67;1.30;;;7.00;84.10;;;8.78;59.33;94841.06;5052369;28;20048;-47
2023/11/03 02:44:44;;;;;;;3.77;1.20;;;7.00;83.90;;;8.78;59.29;94843.72;5052622;28;20052;-46
2023/11/03 02:47:12;;;;;;;1.60;1.13;;;7.00;83.90;;;8.75;59.36;94838.03;5052010;28;20049;-45
2023/11/03 02:49:39;;;;;;;1.63;1.00;;;6.90;84.00;;;8.77;59.47;94849.25;5049409;28;20044;-47
2023/11/03 02:52:07;;;;;;;4.53;1.60;;;6.90;84.00;;;8.65;59.56;94842.00;5052083;28;20051;-46
2023/11/03 02:54:35;;;;;;;4.13;2.60;;;6.80;84.50;;;8.58;59.64;94837.78;5070474;28;20032;-46
2023/11/03 02:57:02;;;;;;;2.73;1.10;;;6.70;85.10;;;8.54;59.81;94837.38;5064590;28;20060;-46
2023/11/03 02:59:30;;;;;;;3.43;0.90;;;6.70;85.70;;;8.50;60.00;94836.19;5073544;28;20036;-47
2023/11/03 03:01:58;;;;;;;5.30;1.97;;;6.70;85.90;;;8.51;59.78;94832.53;5055595;28;20427;-45
2023/11/03 03:04:26;;;;;;;4.77;1.80;;;6.60;85.80;;;8.55;59.79;94841.69;5056447;28;20060;-45
2023/11/03 03:06:54;;;;;;;2.57;1.07;;;6.60;85.70;;;8.54;59.71;94834.75;5055787;28;20045;-46
2023/11/03 03:09:23;;;;;;;4.63;1.37;;;6.60;86.30;;;8.59;59.72;94834.09;5056572;28;20045;-48
2023/11/03 03:11:51;;;;;;;2.60;0.97;;;6.60;86.50;;;8.62;59.60;94841.59;5055346;28;20059;-45
2023/11/03 03:14:19;;;;;;;5.40;1.70;;;6.70;85.90;;;8.63;59.53;94841.41;5073996;28;20411;-45
2023/11/03 03:16:46;;;;;;;1.67;1.00;;;6.70;85.60;;;8.60;59.66;94844.47;5039498;28;20048;-44
2023/11/03 03:19:14;;;;;;;4.93;1.63;;;6.70;85.80;;;8.57;59.62;94846.75;5055199;28;20052;-48
2023/11/03 03:21:42;;;;;;;4.60;2.23;;;6.70;85.50;;;8.52;59.59;94852.72;5073408;28;20495;-45
2023/11/03 03:24:09;;;;;;;8.03;2.40;;;6.60;85.80;;;8.50;59.69;94854.75;5073869;28;20048;-45
2023/11/03 03:26:38;;;;;;;5.50;2.00;;;6.50;86.20;;;8.45;59.92;94862.53;5056052;28;20048;-47
2023/11/03 03:29:06;;;;;;;2.90;1.60;;;6.50;86.50;;;8.40;59.97;94857.88;5065616;28;20032;-46
2023/11/03 03:31:34;;;;;;;4.00;1.80;;;6.50;86.50;;;8.42;60.11;94853.19;5055094;28;20040;-44
2023/11/03 03:34:01;;;;;;;5.57;1.90;;;6.50;86.60;;;8.42;60.18;94863.78;5073575;28;20036;-45
2023/11/03 03:36:29;;;;;;;3.07;1.87;;;6.50;87.10;;;8.36;60.81;94863.81;5055244;28;20056;-50
2023/11/03 03:38:57;;;;;;;4.50;1.90;;;6.50;87.10;;;8.38;60.61;94867.06;5055805;28;20036;-49
2023/11/03 03:41:25;;;;;;;6.17;2.33;;;6.60;87.50;;;8.39;60.56;94861.53;5055361;28;20045;-45
2023/11/03 03:43:52;;;;;;;15.27;2.80;;;6.60;86.80;;;8.46;60.07;94853.56;5054893;28;20559;-44
2023/11/03 03:46:21;;;;;;;7.40;2.97;;;6.60;86.80;;;8.51;60.50;94859.06;5054836;28;20044;-48
2023/11/03 03:48:50;;;;;;;12.33;4.80;;;6.70;87.20;;;8.59;60.44;94858.78;5073128;28;20040;-47
2023/11/03 03:51:18;;;;;;;4.57;2.53;;;6.80;86.80;;;8.65;60.34;94844.63;5073167;28;20033;-46
2023/11/03 03:53:46;;;;;;;3.93;1.90;;;6.80;86.00;;;8.70;60.20;94833.38;5054848;28;20045;-44
2023/11/03 03:56:13;;;;;;;5.03;2.17;;;6.90;85.80;;;8.78;60.16;94829.63;5053815;28;20044;-47
2023/11/03 03:58:41;;;;;;;6.03;3.30;;;7.00;85.00;;;8.80;60.26;94830.22;5073045;28;20036;-45
2023/11/03 04:01:08;;;;;;;8.30;3.50;;;7.00;84.60;;;8.85;60.09;94825.88;5073047;28;20048;-45
2023/11/03 04:03:36;;;;;;;4.20;1.73;;;7.10;84.80;;;8.87;59.92;94823.00;5055178;28;20048;-50
2023/11/03 04:06:04;;;;;;;3.90;1.73;;;7.10;84.40;;;8.91;59.84;94832.16;5072163;28;20424;-50
2023/11/03 04:08:31;;;;;;;7.10;3.07;;;7.10;84.00;;;8.95;59.74;94836.00;5072312;28;20040;-46
2023/11/03 04:11:00;;;;;;;5.10;1.60;;;7.10;84.70;;;9.01;59.88;94848.38;5062545;28;20049;-47
2023/11/03 04:13:28;;;;;;;3.10;2.50;;;7.20;84.60;;;9.07;59.62;94850.19;5072799;28;20040;-44
2023/11/03 04:15:55;;;;;;;1.80;1.10;;;7.20;83.70;;;9.11;59.47;94853.19;5055020;28;20531;-45
2023/11/03 04:18:23;;;;;;;2.97;1.10;;;7.20;83.40;;;9.12;59.41;94864.63;5072071;28;20052;-46
2023/11/03 04:20:51;;;;;;;4.53;1.70;;;7.20;83.30;;;9.10;59.56;94866.69;5071563;28;20041;-44
2023/11/03 04:23:19;;;;;;;5.47;1.60;;;7.20;83.50;;;9.14;59.54;94881.13;5072783;28;20048;-44
2023/11/03 04:25:47;;;;;;;6.17;2.70;;;7.20;83.70;;;9.15;59.42;94874.78;5053426;28;20044;-45
2023/11/03 04:28:14;;;;;;;3.90;1.90;;;7.30;83.80;;;9.19;59.32;94878.63;5072552;28;20435;-44
2023/11/03 04:30:42;;;;;;;4.47;1.50;;;7.30;84.20;;;9.23;59.35;94877.97;5072192;28;20044;-45
2023/11/03 04:33:10;;;;;;;3.63;1.97;;;7.40;83.90;;;9.23;59.33;94867.34;5064608;28;20044;-44
2023/11/03 04:35:38;;;;;;;4.87;2.13;;;7.40;83.70;;;9.19;59.49;94865.34;5072005;28;20036;-44
2023/11/03 04:38:06;;;;;;;5.50;2.00;;;7.30;83.50;;;9.21;59.19;94861.47;5072270;28;20055;-48
2023/11/03 04:40:33;;;;;;;5.70;2.63;;;7.30;83.20;;;9.22;59.06;94859.59;5072164;28;20048;-50
2023/11/03 04:43:01;;;;;;;3.37;2.00;;;7.30;84.50;;;9.18;59.24;94863.75;5072071;28;20059;-48
2023/11/03 04:45:29;;;;;;;4.20;2.00;;;7.20;84.00;;;9.15;59.20;94854.38;5072358;28;20040;-50
2023/11/03 04:47:57;;;;;;;4.20;1.93;;;7.20;83.70;;;9.15;59.11;94851.72;5072013;28;20059;-50
2023/11/03 04:50:25;;;;;;;2.60;1.73;;;7.20;83.70;;;9.14;59.32;94849.28;5071839;28;20360;-50
2023/11/03 04:52:52;;;;;;;2.67;1.80;;;7.20;83.90;;;9.12;59.39;94859.31;5072067;28;20044;-44
2023/11/03 04:55:20;;;;;;;2.67;1.63;;;7.20;83.70;;;9.02;59.47;94860.63;5053603;28;20045;-46
2023/11/03 04:57:47;;;;;;;2.87;1.60;;;7.20;83.60;;;9.06;59.52;94861.00;5071994;28;20044;-47
2023/11/03 05:00:16;;;;;;;5.30;2.17;;;7.20;83.80;;;9.05;59.43;94854.88;5053170;28;20055;-48
2023/11/03 05:02:44;;;;;;;8.40;2.30;;;7.20;84.20;;;9.07;59.29;94863.44;5071684;28;20053;-51
2023/11/03 05:05:12;;;;;;;4.53;1.17;;;7.20;83.00;;;9.09;59.10;94871.16;5046260;28;20044;-48
2023/11/03 05:07:40;;;;;;;4.20;1.50;;;7.20;82.50;;;9.02;59.45;94865.13;5071736;28;20411;-45
2023/11/03 05:10:08;;;;;;;3.23;1.10;;;7.20;83.10;;;9.03;59.25;94864.09;5071835;28;20051;-46
2023/11/03 05:12:36;;;;;;;4.80;1.20;;;7.20;83.50;;;8.90;59.29;94861.56;5071567;28;20033;-48
2023/11/03 05:15:08;;;;;;;7.33;2.10;;;7.20;83.40;;;8.91;59.33;94861.34;5071480;28;20415;-47
2023/11/03 05:17:35;;;;;;;3.33;1.13;;;7.20;82.80;;;8.82;59.60;94868.78;5053597;28;20037;-50
2023/11/03 05:20:07;;;;;;;5.97;1.33;;;7.20;82.60;;;8.85;59.49;94870.97;5053837;28;20044;-48
2023/11/03 05:22:35;;;;;;;3.17;0.90;;;7.10;82.70;;;8.87;59.45;94879.53;5053048;28;20044;-47
2023/11/03 05:25:04;;;;;;;2.57;0.90;;;7.20;83.00;;;8.95;59.47;94882.94;5071505;28;20044;-44
2023/11/03 05:27:32;;;;;;;3.70;1.37;;;7.20;83.00;;;8.90;59.25;94880.13;5071419;28;20411;-45
2023/11/03 05:30:00;;;;;;;1.53;0.83;;;7.10;82.50;;;8.99;59.45;94879.63;5071348;28;20037;-49
2023/11/03 05:32:28;;;;;;;3.50;1.30;;;7.20;82.80;;;8.95;59.32;94885.59;5070878;28;20079;-48
2023/11/03 05:34:55;;;;;;;3.63;1.27;;;7.20;82.70;;;8.99;59.14;94881.47;5071295;28;20052;-46
2023/11/03 05:37:23;;;;;;;2.63;1.60;;;7.20;82.90;;;8.99;59.09;94884.13;5071496;28;20041;-47
2023/11/03 05:39:50;;;;;;;5.73;1.47;;;7.20;83.20;;;9.00;59.41;94886.56;5071335;28;20045;-47
2023/11/03 05:42:18;;;;;;;2.97;1.27;;;7.10;83.50;;;9.05;59.24;94891.22;5070800;28;20041;-46
2023/11/03 05:44:46;;;;;;;4.67;1.57;;;7.20;83.90;;;9.07;59.21;94889.97;5071444;28;20044;-47
2023/11/03 05:47:13;;;;;;;3.53;1.20;;;7.20;83.90;;;9.09;59.12;94888.94;5053310;28;20044;-48
2023/11/03 05:49:41;;;;;;;2.13;1.17;;;7.20;83.10;;;9.14;58.89;94897.06;5069859;28;20488;-44
2023/11/03 05:52:09;;;;;;;2.53;1.07;;;7.20;83.70;;;9.11;59.12;94900.16;5069271;28;20040;-47
2023/11/03 05:54:36;;;;;;;4.30;1.47;;;7.20;83.20;;;9.04;59.14;94895.72;5053226;28;20040;-47
2023/11/03 05:57:04;;;;;;;2.07;1.43;;;7.20;84.10;;;9.10;59.31;94902.00;5070999;28;20036;-50
2023/11/03 05:59:32;;;;;;;4.33;1.87;;;7.20;84.20;;;9.07;59.33;94910.38;5053451;28;20048;-50
2023/11/03 06:01:59;;;;;;;4.37;1.37;;;7.10;84.20;;;9.06;59.43;94911.44;5070749;28;20052;-44
2023/11/03 06:04:27;;;;;;;2.10;0.97;;;7.10;84.50;;;9.09;59.20;94918.13;5071186;28;20484;-44
2023/11/03 06:06:55;;;;;;;2.10;0.90;;;7.20;84.50;;;9.09;59.07;94923.44;5071067;28;20073;-44
2023/11/03 06:09:22;;;;;;;3.13;1.30;;;7.20;83.70;;;9.11;59.22;94939.94;5070767;28;20032;-46
2023/11/03 06:11:50;;;;;;;3.10;1.10;;;7.20;84.10;;;9.11;59.31;94943.44;5070766;28;20044;-47
2023/11/03 06:14:18;;;;;;;2.20;0.97;;;7.20;84.00;;;9.14;58.98;94945.63;5070818;28;20073;-44
2023/11/03 06:16:45;;;;;;;3.97;1.33;;;7.20;83.60;;;9.13;59.14;94952.00;5036328;28;20041;-47
2023/11/03 06:19:13;;;;;;;2.53;1.27;;;7.20;83.60;;;9.16;59.24;94956.03;5070928;28;20048;-49
2023/11/03 06:21:41;;;;;;;1.87;1.00;;;7.20;83.70;;;9.20;59.26;94951.94;5070188;28;20048;-49
2023/11/03 06:24:10;;;;;;;4.50;1.53;;;7.30;83.80;;;9.19;58.88;94947.63;5070855;28;20284;-44
2023/11/03 06:26:38;;;;;;;2.83;1.20;;;7.30;83.30;;;9.19;58.98;94953.78;5070961;28;20045;-45
2023/11/03 06:29:05;;;;;;;2.67;1.17;;;7.30;83.30;;;9.21;59.18;94954.38;5070423;28;20051;-45
2023/11/03 06:31:33;;;;;;;2.33;1.40;;;7.30;83.70;;;9.20;59.07;94967.84;5074320;28;20047;-44
2023/11/03 06:34:03;;;;;;;3.70;1.20;;;7.20;83.90;;;9.22;59.24;94963.13;5074390;28;20044;-49
2023/11/03 06:36:31;;;;;;;2.17;1.13;;;7.30;84.40;;;9.25;59.10;94968.03;5074514;28;20515;-45
2023/11/03 06:39:18;;;;;;;3.60;1.00;;;7.30;84.40;;;9.27;59.07;94966.75;5074288;28;20048;-45
2023/11/03 06:41:47;;;;;;;4.57;1.37;;;7.30;84.70;;;9.23;59.21;94964.78;5074371;28;20488;-44
2023/11/03 06:44:15;;;;;;;3.30;1.00;;;7.20;84.60;;;9.17;59.57;94966.44;5074475;28;20427;-45
2023/11/03 06:46:42;;;;;;;1.90;1.30;;;7.20;85.20;;;9.16;59.16;94970.13;5074617;28;20040;-47
2023/11/03 06:49:10;;;;;;;3.00;1.20;;;7.20;84.50;;;9.12;59.40;94976.91;5074361;28;20052;-48
2023/11/03 06:51:41;;;;;;;4.30;1.43;;;7.20;84.40;;;9.12;59.24;94974.25;5074003;28;20047;-46
2023/11/03 06:54:09;;;;;;;4.00;1.50;;;7.20;83.90;;;9.13;59.49;94985.66;5073462;28;20041;-47
2023/11/03 06:56:36;;;;;;;4.93;1.33;;;7.30;84.20;;;9.14;59.44;94993.41;5074440;28;20037;-44
2023/11/03 06:59:05;;;;;;;6.40;2.30;;;7.30;85.00;;;9.10;59.71;94991.44;5074141;28;20048;-45
2023/11/03 07:01:34;;;;;;;2.77;1.53;;;7.30;85.50;;;9.12;59.77;94999.97;5073762;28;20051;-47
2023/11/03 07:04:02;;;;;;;2.37;1.23;;;7.30;85.90;;;9.16;59.69;94994.00;5074121;28;20052;-44
2023/11/03 07:06:29;;;;;;;5.50;1.20;;;7.30;85.00;;;9.19;59.58;95004.22;5074300;28;20055;-47
2023/11/03 07:08:58;;;;;;;3.47;1.53;;;7.30;84.60;;;9.13;59.46;95010.38;5073935;28;20040;-46
2023/11/03 07:11:25;;;;;;;3.23;1.10;;;7.30;84.20;;;9.20;59.44;95026.25;5065805;28;20037;-44
2023/11/03 07:13:53;;;;;;;3.67;1.43;;;7.30;84.20;;;9.22;59.40;95018.88;5073685;28;20040;-47
2023/11/03 07:16:21;;;;;;;3.73;1.43;;;7.40;84.50;;;9.26;59.41;95020.06;5073928;28;20500;-45
2023/11/03 07:18:49;;;;;;;5.00;1.30;;;7.40;84.40;;;9.31;59.54;95025.56;5073896;28;20044;-47
2023/11/03 07:21:17;;;;;;;2.90;1.13;;;7.40;85.00;;;9.33;59.36;95026.16;5073586;28;20051;-44
2023/11/03 07:23:46;;;;;;;2.27;1.47;;;7.50;84.60;;;9.30;59.55;95034.53;5056109;28;20045;-45
2023/11/03 07:26:13;;;;;;;1.93;0.90;;;7.50;85.20;;;9.35;59.34;95023.28;5073562;28;20056;-44
2023/11/03 07:28:45;;;;;;;6.90;2.20;;;7.50;84.50;;;9.29;59.60;95024.16;5073703;28;20044;-48
2023/11/03 07:31:13;;;;;;;1.87;1.20;;;7.50;84.70;;;9.28;59.49;95028.63;5073111;28;20045;-47
2023/11/03 07:33:41;;;;;;;3.67;2.40;;;7.40;84.20;;;9.25;59.61;95026.44;5073754;28;20048;-44
2023/11/03 07:36:11;;;;;;;3.70;1.40;;;7.40;85.20;;;9.28;59.60;95036.59;5073569;28;20041;-44
2023/11/03 07:38:39;;;;;;;3.60;1.20;;;7.40;85.10;;;9.28;59.55;95036.59;5073777;28;20652;-44
2023/11/03 07:41:10;;;;;;;3.77;1.50;;;7.40;85.20;;;9.32;59.51;95040.44;5072864;28;20044;-43
2023/11/03 07:43:37;;;;;;;3.03;1.50;;;7.40;85.20;;;9.31;59.68;95036.16;5073506;28;20287;-46
2023/11/03 07:46:05;;;;;;;2.67;1.13;;;7.50;85.40;;;9.36;59.86;95038.16;5072620;28;20067;-43
2023/11/03 07:48:34;;;;;;;3.67;1.40;;;7.40;85.30;;;9.41;59.66;95035.69;5073430;28;20045;-46
2023/11/03 07:51:02;;;;;;;3.87;1.53;;;7.50;85.50;;;9.45;59.67;95048.28;5072836;28;20044;-46
2023/11/03 07:53:30;;;;;;;3.23;1.30;;;7.60;85.50;;;9.48;59.50;95049.72;5073426;28;20116;-48
2023/11/03 07:55:58;;;;;;;5.20;1.50;;;7.60;85.10;;;9.47;59.41;95048.09;5054894;28;20059;-47
2023/11/03 07:58:27;;;;;;;2.50;1.20;;;7.60;84.50;;;9.48;59.68;95049.72;5055420;28;20041;-48
2023/11/03 08:00:57;;;;;;;4.03;1.40;;;7.60;85.30;;;9.44;59.68;95041.38;5054276;28;20618;-44
2023/11/03 08:03:29;;;;;;;3.23;1.20;;;7.60;84.60;;;9.46;59.38;95041.16;5055311;28;20496;-43
2023/11/03 08:05:58;;;;;;;4.63;1.70;;;7.60;85.00;;;9.49;59.78;95046.03;5073096;28;20048;-44
2023/11/03 08:08:26;;;;;;;4.40;1.67;;;7.70;85.40;;;9.50;59.98;95038.84;5072783;28;20047;-42
2023/11/03 08:10:54;;;;;;;5.47;1.77;;;7.70;85.90;;;9.52;59.64;95036.78;5054439;28;20047;-42
2023/11/03 08:13:23;;;;;;;4.67;1.70;;;7.70;85.90;;;9.51;59.61;95043.97;5072650;28;20045;-44
2023/11/03 08:15:51;;;;;;;3.73;1.50;;;7.70;86.20;;;9.53;60.03;95046.41;5072959;28;20056;-43
2023/11/03 08:18:19;;;;;;;2.10;1.83;;;7.70;86.20;;;9.53;60.04;95047.22;5072528;28;20045;-47
2023/11/03 08:20:47;;;;;;;3.70;1.40;;;7.70;85.60;;;9.56;59.80;95051.28;5072591;28;20423;-43
2023/11/03 08:23:15;;;;;;;7.67;2.00;;;7.70;85.80;;;9.53;59.86;95046.41;5072669;28;20415;-47
2023/11/03 08:25:46;;;;;;;4.40;1.60;;;7.70;85.80;;;9.59;59.95;95051.66;5072724;28;20048;-45
2023/11/03 08:28:14;;;;;;;6.23;2.73;;;7.80;86.30;;;9.65;60.28;95057.94;5054824;28;20048;-44
2023/11/03 08:30:41;;;;;;;4.03;1.87;;;7.80;86.10;;;9.71;60.05;95050.94;5072227;28;20037;-43
2023/11/03 08:33:09;;;;;;;4.10;2.00;;;7.90;86.00;;;9.76;60.03;95053.75;5072501;28;20036;-45
2023/11/03 08:35:37;;;;;;;2.97;1.43;;;8.00;85.50;;;9.82;60.00;95053.69;5072374;28;20488;-43
2023/11/03 08:38:05;;;;;;;2.80;1.70;;;8.00;85.00;;;9.84;59.76;95048.16;5072423;28;20514;-44
2023/11/03 08:40:32;;;;;;;3.40;1.70;;;8.00;84.80;;;9.84;59.90;95048.16;5071896;28;20048;-45
2023/11/03 08:43:01;;;;;;;5.07;1.70;;;8.10;84.60;;;9.85;59.55;95055.91;5072010;28;20052;-45
2023/11/03 08:45:28;;;;;;;4.57;1.33;;;8.10;84.50;;;9.89;59.64;95058.09;5071976;28;20060;-43
2023/11/03 08:47:56;;;;;;;4.83;1.33;;;8.10;84.30;;;9.95;59.76;95065.22;5072439;28;20045;-43
2023/11/03 08:50:24;;;;;;;2.43;1.17;;;8.20;83.70;;;9.97;59.73;95077.25;5071654;28;20044;-43
2023/11/03 08:52:52;;;;;;;2.20;1.40;;;8.20;83.00;;;10.02;59.49;95073.94;5068566;28;20049;-46
2023/11/03 08:55:19;;;;;;;2.67;1.13;;;8.30;83.20;;;10.02;59.24;95076.59;5071778;28;20527;-44
2023/11/03 08:57:47;;;;;;;4.67;1.30;;;8.30;82.60;;;10.00;59.18;95083.97;5072108;28;20135;-44
2023/11/03 09:00:15;;;;;;;3.60;2.27;;;8.30;81.80;;;10.02;59.59;95080.06;5071208;28;20071;-44
2023/11/03 09:02:46;;;;;;;5.37;1.57;;;8.30;82.80;;;10.01;59.09;95090.91;5078894;28;20051;-47
2023/11/03 09:05:14;;;;;;;2.97;1.20;;;8.30;82.10;;;9.98;59.48;95100.16;5082353;28;20407;-45
2023/11/03 09:07:43;;;;;;;3.37;0.90;;;8.30;82.80;;;10.01;59.20;95096.25;5082619;28;20039;-46
2023/11/03 09:10:11;;;;;;;2.23;1.30;;;8.30;81.50;;;10.00;59.26;95097.25;5057741;28;20044;-47
2023/11/03 09:12:43;;;;;;;3.10;0.73;;;8.30;81.70;;;10.06;58.90;95107.00;5078204;28;20047;-45
2023/11/03 09:15:11;;;;;;;2.60;1.00;;;8.40;82.00;;;10.13;59.33;95105.09;5057644;28;20046;-44
2023/11/03 09:17:45;;;;;;;7.17;1.00;;;8.40;80.90;;;10.14;58.68;95106.75;5076267;28;20052;-45
2023/11/03 09:20:17;;;;;;;0.95;0.77;;;8.40;80.70;;;10.14;58.92;95106.75;5071880;28;20044;-49
2023/11/03 09:22:48;;;;;;;2.33;1.10;;;8.40;80.30;;;10.23;58.87;95107.25;5071387;28;20052;-44
2023/11/03 09:25:17;;;;;;;2.40;1.17;;;8.60;80.00;;;10.28;58.62;95101.28;5071314;28;20052;-45
2023/11/03 09:27:46;;;;;;;1.57;0.80;;;8.60;80.20;;;10.30;58.23;95104.53;5071657;28;20051;-49
2023/11/03 09:30:15;;;;;;;1.63;0.70;;;8.60;79.50;;;10.38;58.23;95112.25;5071461;28;20045;-47
2023/11/03 09:32:45;;;;;;;4.73;0.87;;;8.70;79.70;;;10.39;58.65;95106.72;5071473;28;20036;-46
2023/11/03 09:35:13;;;;;;;1.87;0.93;;;8.70;80.40;;;10.40;58.28;95108.31;5071038;28;20052;-46
2023/11/03 09:37:41;;;;;;;4.03;1.13;;;8.80;78.20;;;10.39;58.15;95101.38;5071280;28;20040;-48
2023/11/03 09:40:10;;;;;;;2.23;0.87;;;8.80;78.40;;;10.40;58.19;95099.53;5071454;28;20415;-45
2023/11/03 09:42:37;;;;;;;1.10;0.80;;;8.80;78.80;;;10.40;57.88;95094.22;5052610;28;20041;-46
2023/11/03 09:45:15;;;;;;;1.77;1.00;;;8.80;79.50;;;10.40;58.14;95096.88;5071348;28;20535;-45
2023/11/03 09:47:45;;;;;;;1.02;0.70;;;8.80;77.80;;;10.16;57.70;95096.69;5062409;28;20415;-44
2023/11/03 09:50:13;;;;;;;2.37;1.27;;;8.60;78.40;;;10.22;58.03;95095.81;5071126;28;20504;-46
2023/11/03 09:52:49;;;;;;;3.30;0.80;;;8.70;77.70;;;10.22;57.89;95092.34;5053353;28;20037;-49
2023/11/03 09:55:23;;;;;;;2.00;1.03;;;8.70;77.70;;;10.29;57.97;95092.25;5070773;28;20048;-45
2023/11/03 09:57:57;;;;;;;1.90;0.93;;;8.80;77.00;;;10.20;57.29;95092.56;5070770;28;20045;-46
2023/11/03 10:00:26;;;;;;;1.23;1.13;;;8.80;76.00;;;10.11;57.68;95085.09;5070714;28;20052;-46
2023/11/03 10:02:54;;;;;;;1.10;0.90;;;8.70;76.80;;;10.18;57.63;95091.97;5053536;28;20048;-45
2023/11/03 10:05:24;;;;;;;1.47;0.80;;;8.80;76.60;;;10.12;57.33;95078.72;5070742;28;20515;-49
2023/11/03 10:08:05;;;;;;;2.13;0.80;;;8.80;75.70;;;9.93;56.95;95083.25;5071102;28;20496;-46
2023/11/03 10:10:38;;;;;;;0.83;0.43;;;8.70;74.50;;;10.12;56.74;95071.59;5070616;28;20036;-46
2023/11/03 10:13:11;;;;;;;2.72;1.00;;;8.70;74.80;;;10.07;56.93;95075.94;5053538;28;20041;-45
2023/11/03 10:15:41;;;;;;;1.73;0.70;;;8.80;74.90;;;10.19;56.84;95067.00;5070794;28;20419;-45
2023/11/03 10:18:10;;;;;;;0.57;0.43;;;8.90;74.00;;;10.12;56.75;95073.41;5070866;28;20526;-45
2023/11/03 10:20:38;;;;;;;0.60;0.40;;;8.90;73.70;;;10.02;56.90;95069.44;5052936;28;20047;-44
2023/11/03 10:23:06;;;;;;;4.73;1.03;;;8.80;74.00;;;10.17;56.80;95066.41;5070904;28;20419;-46
2023/11/03 10:25:36;;;;;;;2.07;0.93;;;8.90;74.10;;;10.15;56.23;95070.31;5070578;28;20420;-43
2023/11/03 10:28:06;;;;;;;1.50;0.80;;;8.90;74.20;;;10.15;56.75;95068.47;5070691;28;20052;-44
2023/11/03 10:30:37;;;;;;;0.73;0.70;;;8.90;73.90;;;10.14;56.57;95069.53;5052917;28;20410;-44
2023/11/03 10:33:06;;;;;;;0.57;0.57;;;8.90;74.20;;;10.11;56.89;95061.97;5070857;28;20040;-46
2023/11/03 10:35:35;;;;;;;1.23;0.70;;;9.00;73.60;;;10.31;56.28;95063.63;5050672;28;20040;-44
2023/11/03 10:38:03;;;;;;;1.17;0.73;;;9.10;74.40;;;10.28;56.51;95056.09;5076598;28;20488;-44